Flight Track Log - Related Links

Times and Time Zones

All times are in EDT time to prevent confusion due to time zone crossing. See the EGF4393 flight status page for this flight to view local times or setup timezone preferences in your user account.

Time Position Orientation Groundspeed Altitude Reporting Facility
EDT Latitude Longitude Course Direction KTS MPH feet Rate Location/Type
Sat 03:40:47 PM 41.9333 -87.8833 346° North 179 206 2,200  Level Chicago TRACON
Sat 03:41:47 PM 41.9333 -87.8167 90° East 213 245 4,900 2,452 Climbing Chicago TRACON
Sat 03:42:00 PM 42.1554 -87.9597 350° North  Level FlightAware Approximate
Sat 03:42:42 PM 42.0000 -87.8000 11° North 271 312 6,900  Level Chicago TRACON
Sat 03:43:00 PM 42.2497 -87.9916 350° North  Level FlightAware Approximate
Sat 03:44:00 PM 42.3457 -88.0156 350° North  Level FlightAware Approximate
Sat 03:44:57 PM 42.1678 -87.8089 358° North 298 343 13,100  Level Chicago Center
Sat 03:45:00 PM 42.4385 -88.0544 352° North  Level FlightAware Approximate
Sat 03:45:59 PM 42.2522 -87.8150 357° North 305 351 15,500  Level Chicago Center
Sat 03:46:00 PM 42.5206 -88.0846 346° North  Level FlightAware Approximate
Sat 03:47:00 PM 42.3519 -87.8194 358° North 321 369 18,000  Level Chicago Center
Sat 03:48:02 PM 42.4428 -87.8297 355° North 326 375 20,300 1,742 Climbing Chicago Center
Sat 03:49:04 PM 42.5400 -87.8417 355° North 344 396 21,600 829 Climbing Chicago Center
Sat 03:50:05 PM 42.6556 -87.9178 334° Northwest 399 459 22,000 195 Climbing Chicago Center
Sat 03:51:07 PM 42.7581 -88.0008 329° Northwest 422 486 22,000  Level Chicago Center
Sat 03:52:09 PM 42.8625 -88.0836 330° Northwest 431 496 22,000  Level Chicago Center
Sat 03:53:10 PM 42.9658 -88.1669 329° Northwest 431 496 22,000  Level Chicago Center
Sat 03:54:12 PM 43.0703 -88.2500 330° Northwest 433 498 22,000  Level Chicago Center
Sat 03:55:14 PM 43.1750 -88.3333 330° Northwest 434 499 22,000  Level Chicago Center
Sat 03:56:15 PM 43.2786 -88.4181 329° Northwest 433 498 22,000  Level Chicago Center
Sat 03:57:17 PM 43.3833 -88.5031 329° Northwest 431 496 22,000  Level Chicago Center
Sat 03:58:19 PM 43.4933 -88.5928 329° Northwest 434 499 22,000  Level Chicago Center
Sat 03:59:20 PM 43.5978 -88.6781 329° Northwest 434 499 22,000  Level Chicago Center
Sat 04:00:04 PM 43.6842 -88.7483 330° Northwest 432 497 22,000 -226 Level Minneapolis Center
Sat 04:01:06 PM 43.7867 -88.8339 329° Northwest 431 496 21,600 -1,220 Descending Minneapolis Center
Sat 04:02:07 PM 43.8867 -88.9169 329° Northwest 420 483 19,500 -2,049 Descending Minneapolis Center
Sat 04:03:09 PM 43.9836 -88.9967 329° Northwest 408 470 17,400 -2,244 Descending Minneapolis Center
Sat 04:04:10 PM 44.0867 -89.0825 329° Northwest 389 448 14,900 -1,902 Descending Minneapolis Center
Sat 04:05:12 PM 44.1750 -89.1564 329° Northwest 386 444 13,500 -1,512 Descending Minneapolis Center
Sat 04:06:13 PM 44.2681 -89.2339 329° Northwest 375 432 11,800 -1,512 Descending Minneapolis Center
Sat 04:07:15 PM 44.3511 -89.3036 329° Northwest 337 388 10,400 -1,463 Descending Minneapolis Center
Sat 04:08:16 PM 44.4169 -89.3600 329° Northwest 275 316 8,800 -1,561 Descending Minneapolis Center
Sat 04:09:18 PM 44.4828 -89.4169 328° Northwest 267 307 7,200 -1,366 Descending Minneapolis Center
Sat 04:10:19 PM 44.5433 -89.4675 329° Northwest 264 304 6,000 -1,122 Descending Minneapolis Center
Sat 04:11:21 PM 44.6100 -89.5228 329° Northwest 267 307 4,900 -1,065 Descending Minneapolis Center

Login

Don't have an account? Register now (free) for customized features, flight alerts, and more!